Terminal Aerodrome Forecast
Issued by NWS Amarillo, TX

Home | Current Version | Previous Version | Text Only | Print | Product List | Glossary On
Versions: 1 2 3 4 5 6 7 8 9 10 11 12 13 14 15
000
FTUS44 KAMA 302320
TAFDHT
TAF
KDHT 302320Z 3100/3124 19014KT P6SM SCT060 BKN150
     FM310200 16010KT P6SM OVC120
     FM311400 35015KT P6SM OVC120
     FM311700 03014KT P6SM SCT050 BKN110=

USA.gov is the U.S. government's official web portal to all federal, state and local government web resources and services.